Terminal Aerodrome Forecast
Issued by NWS

Home | Current Version | Previous Version | Text Only | Print | Product List | Glossary On
Versions: 1 2 3 4 5 6 7 8 9 10 11 12 13 14 15 16 17 18 19 20 21 22 23
000
FTUS45 KBOU 271622 AAC
TAFAPA
TAF AMD
KAPA 271622Z 2716/2812 01016G26KT P6SM VCSH SCT035 BKN045 BKN050
      TEMPO 2716/2720 -SHRA BKN030
     FM272000 03013G20KT P6SM VCSH SCT040 BKN060
      TEMPO 2720/2723 -SHRA BKN030
     FM272300 36010KT P6SM VCSH SCT030 BKN050
     FM280200 29007KT P6SM FEW060 BKN200
     FM280400 18006KT P6SM BKN200=

USA.gov is the U.S. government's official web portal to all federal, state and local government web resources and services.